sensor_id;sensor_type;location;lat;lon;timestamp;pressure;altitude;pressure_sealevel;temperature;humidity
4085;BME280;2057;50.858;6.572;2023-03-21T00:00:16;100521.31;;;8.98;100.00
4085;BME280;2057;50.858;6.572;2023-03-21T00:02:41;100512.84;;;8.98;100.00
4085;BME280;2057;50.858;6.572;2023-03-21T00:05:07;100512.66;;;8.94;100.00
4085;BME280;2057;50.858;6.572;2023-03-21T00:07:32;100514.28;;;8.92;100.00
4085;BME280;2057;50.858;6.572;2023-03-21T00:09:58;100505.00;;;8.93;100.00
4085;BME280;2057;50.858;6.572;2023-03-21T00:12:23;100506.56;;;8.91;100.00
4085;BME280;2057;50.858;6.572;2023-03-21T00:14:48;100505.00;;;8.93;100.00
4085;BME280;2057;50.858;6.572;2023-03-21T00:17:14;100494.88;;;8.93;100.00
4085;BME280;2057;50.858;6.572;2023-03-21T00:19:40;100493.44;;;8.98;100.00
4085;BME280;2057;50.858;6.572;2023-03-21T00:22:06;100494.41;;;9.00;100.00
4085;BME280;2057;50.858;6.572;2023-03-21T00:24:32;100491.75;;;8.97;100.00
4085;BME280;2057;50.858;6.572;2023-03-21T00:26:58;100488.69;;;8.88;100.00
4085;BME280;2057;50.858;6.572;2023-03-21T00:29:23;100494.88;;;8.93;100.00
4085;BME280;2057;50.858;6.572;2023-03-21T00:31:49;100488.75;;;8.89;100.00
4085;BME280;2057;50.858;6.572;2023-03-21T00:34:14;100487.72;;;8.86;100.00
4085;BME280;2057;50.858;6.572;2023-03-21T00:36:42;100486.50;;;8.79;100.00
4085;BME280;2057;50.858;6.572;2023-03-21T00:39:10;100485.97;;;8.85;100.00
4085;BME280;2057;50.858;6.572;2023-03-21T00:41:35;100479.09;;;8.82;100.00
4085;BME280;2057;50.858;6.572;2023-03-21T00:44:01;100484.75;;;8.78;100.00
4085;BME280;2057;50.858;6.572;2023-03-21T00:46:28;100474.81;;;8.81;100.00
4085;BME280;2057;50.858;6.572;2023-03-21T00:48:53;100468.97;;;8.82;100.00
4085;BME280;2057;50.858;6.572;2023-03-21T00:51:21;100471.81;;;8.88;100.00
4085;BME280;2057;50.858;6.572;2023-03-21T00:53:51;100468.50;;;8.89;100.00
4085;BME280;2057;50.858;6.572;2023-03-21T00:56:17;100470.16;;;8.89;100.00
4085;BME280;2057;50.858;6.572;2023-03-21T00:58:42;100467.63;;;8.89;100.00
4085;BME280;2057;50.858;6.572;2023-03-21T01:01:08;100470.59;;;8.82;100.00
4085;BME280;2057;50.858;6.572;2023-03-21T01:03:33;100467.47;;;8.86;100.00
4085;BME280;2057;50.858;6.572;2023-03-21T01:06:10;100467.53;;;8.87;100.00
4085;BME280;2057;50.858;6.572;2023-03-21T01:08:42;100458.63;;;8.94;100.00
4085;BME280;2057;50.858;6.572;2023-03-21T01:11:11;100460.47;;;8.97;100.00
4085;BME280;2057;50.858;6.572;2023-03-21T01:13:37;100467.88;;;8.93;100.00
4085;BME280;2057;50.858;6.572;2023-03-21T01:16:04;100463.88;;;8.97;100.00
4085;BME280;2057;50.858;6.572;2023-03-21T01:18:31;100456.19;;;8.95;100.00
4085;BME280;2057;50.858;6.572;2023-03-21T01:20:58;100452.63;;;8.92;100.00
4085;BME280;2057;50.858;6.572;2023-03-21T01:23:27;100452.69;;;8.93;100.00
4085;BME280;2057;50.858;6.572;2023-03-21T01:25:54;100451.38;;;9.00;100.00
4085;BME280;2057;50.858;6.572;2023-03-21T01:28:21;100450.59;;;9.01;100.00
4085;BME280;2057;50.858;6.572;2023-03-21T01:30:48;100454.22;;;9.06;100.00
4085;BME280;2057;50.858;6.572;2023-03-21T01:33:18;100443.66;;;9.14;100.00
4085;BME280;2057;50.858;6.572;2023-03-21T01:35:44;100451.84;;;9.24;100.00
4085;BME280;2057;50.858;6.572;2023-03-21T01:38:12;100439.41;;;9.29;100.00
4085;BME280;2057;50.858;6.572;2023-03-21T01:40:39;100437.13;;;9.34;100.00
4085;BME280;2057;50.858;6.572;2023-03-21T01:43:18;100435.69;;;9.39;100.00
4085;BME280;2057;50.858;6.572;2023-03-21T01:49:31;100421.53;;;9.42;100.00
4085;BME280;2057;50.858;6.572;2023-03-21T01:52:04;100419.94;;;9.45;100.00
4085;BME280;2057;50.858;6.572;2023-03-21T01:54:33;100416.31;;;9.39;100.00
4085;BME280;2057;50.858;6.572;2023-03-21T01:57:04;100408.53;;;9.36;100.00
4085;BME280;2057;50.858;6.572;2023-03-21T01:59:44;100405.84;;;9.33;100.00
4085;BME280;2057;50.858;6.572;2023-03-21T02:02:23;100404.09;;;9.32;100.00
4085;BME280;2057;50.858;6.572;2023-03-21T02:04:50;100400.78;;;9.33;100.00
4085;BME280;2057;50.858;6.572;2023-03-21T02:07:25;100402.03;;;9.25;100.00
4085;BME280;2057;50.858;6.572;2023-03-21T02:09:54;100398.56;;;9.23;100.00
4085;BME280;2057;50.858;6.572;2023-03-21T02:12:20;100395.56;;;9.30;100.00
4085;BME280;2057;50.858;6.572;2023-03-21T02:14:47;100389.72;;;9.31;100.00
4085;BME280;2057;50.858;6.572;2023-03-21T02:17:33;100391.81;;;9.23;100.00
4085;BME280;2057;50.858;6.572;2023-03-21T02:20:43;100392.38;;;9.18;100.00
4085;BME280;2057;50.858;6.572;2023-03-21T02:28:41;100383.38;;;9.23;100.00
4085;BME280;2057;50.858;6.572;2023-03-21T02:36:27;100380.13;;;9.25;100.00
4085;BME280;2057;50.858;6.572;2023-03-21T02:41:49;100374.81;;;9.21;100.00
4085;BME280;2057;50.858;6.572;2023-03-21T02:47:15;100376.06;;;9.13;100.00
4085;BME280;2057;50.858;6.572;2023-03-21T02:49:49;100374.00;;;9.05;100.00
4085;BME280;2057;50.858;6.572;2023-03-21T02:52:26;100364.06;;;8.93;100.00
4085;BME280;2057;50.858;6.572;2023-03-21T02:54:55;100364.16;;;8.95;100.00
4085;BME280;2057;50.858;6.572;2023-03-21T02:57:21;100366.84;;;8.98;100.00
4085;BME280;2057;50.858;6.572;2023-03-21T02:59:50;100357.19;;;8.91;100.00
4085;BME280;2057;50.858;6.572;2023-03-21T03:02:20;100354.66;;;8.91;100.00
4085;BME280;2057;50.858;6.572;2023-03-21T03:04:47;100353.22;;;8.79;100.00
4085;BME280;2057;50.858;6.572;2023-03-21T03:07:39;100347.09;;;8.76;100.00
4085;BME280;2057;50.858;6.572;2023-03-21T03:10:24;100348.31;;;8.83;100.00
4085;BME280;2057;50.858;6.572;2023-03-21T03:18:55;100346.88;;;8.71;100.00
4085;BME280;2057;50.858;6.572;2023-03-21T03:24:29;100333.66;;;8.77;100.00
4085;BME280;2057;50.858;6.572;2023-03-21T03:27:00;100333.66;;;8.77;100.00
4085;BME280;2057;50.858;6.572;2023-03-21T03:29:31;100334.06;;;8.68;100.00
4085;BME280;2057;50.858;6.572;2023-03-21T03:32:02;100329.00;;;8.68;100.00
4085;BME280;2057;50.858;6.572;2023-03-21T03:34:32;100329.94;;;8.70;100.00
4085;BME280;2057;50.858;6.572;2023-03-21T03:37:05;100329.84;;;8.69;100.00
4085;BME280;2057;50.858;6.572;2023-03-21T03:39:35;100325.03;;;8.73;100.00
4085;BME280;2057;50.858;6.572;2023-03-21T03:42:12;100314.78;;;8.70;100.00
4085;BME280;2057;50.858;6.572;2023-03-21T03:44:40;100323.28;;;8.72;100.00
4085;BME280;2057;50.858;6.572;2023-03-21T03:50:26;100312.72;;;8.79;100.00
4085;BME280;2057;50.858;6.572;2023-03-21T03:53:02;100318.91;;;8.85;100.00
4085;BME280;2057;50.858;6.572;2023-03-21T03:55:31;100318.25;;;8.89;100.00
4085;BME280;2057;50.858;6.572;2023-03-21T03:57:59;100322.47;;;8.88;100.00
4085;BME280;2057;50.858;6.572;2023-03-21T04:00:24;100319.31;;;8.92;100.00
4085;BME280;2057;50.858;6.572;2023-03-21T04:02:52;100316.53;;;8.88;100.00
4085;BME280;2057;50.858;6.572;2023-03-21T04:05:20;100318.44;;;8.92;100.00
4085;BME280;2057;50.858;6.572;2023-03-21T04:07:48;100318.19;;;8.87;100.00
4085;BME280;2057;50.858;6.572;2023-03-21T04:10:18;100315.41;;;8.83;100.00
4085;BME280;2057;50.858;6.572;2023-03-21T04:12:44;100312.09;;;8.84;100.00
4085;BME280;2057;50.858;6.572;2023-03-21T04:15:10;100320.16;;;8.93;100.00
4085;BME280;2057;50.858;6.572;2023-03-21T04:17:38;100317.31;;;8.87;100.00
4085;BME280;2057;50.858;6.572;2023-03-21T04:20:04;100306.41;;;8.88;100.00
4085;BME280;2057;50.858;6.572;2023-03-21T04:22:31;100310.66;;;8.89;100.00
4085;BME280;2057;50.858;6.572;2023-03-21T04:24:59;100309.72;;;8.87;100.00
4085;BME280;2057;50.858;6.572;2023-03-21T04:27:29;100312.41;;;8.90;100.00
4085;BME280;2057;50.858;6.572;2023-03-21T04:29:55;100313.81;;;8.85;100.00
4085;BME280;2057;50.858;6.572;2023-03-21T04:32:20;100307.75;;;8.98;100.00
4085;BME280;2057;50.858;6.572;2023-03-21T04:34:48;100303.63;;;8.83;100.00
4085;BME280;2057;50.858;6.572;2023-03-21T04:37:17;100307.91;;;8.84;100.00
4085;BME280;2057;50.858;6.572;2023-03-21T04:39:43;100298.66;;;8.85;100.00
4085;BME280;2057;50.858;6.572;2023-03-21T04:42:10;100296.91;;;8.84;100.00
4085;BME280;2057;50.858;6.572;2023-03-21T04:44:36;100304.72;;;8.72;100.00
4085;BME280;2057;50.858;6.572;2023-03-21T04:47:01;100303.22;;;8.75;100.00
4085;BME280;2057;50.858;6.572;2023-03-21T04:49:27;100296.25;;;8.71;100.00
4085;BME280;2057;50.858;6.572;2023-03-21T04:51:52;100308.09;;;8.72;100.00
4085;BME280;2057;50.858;6.572;2023-03-21T04:54:17;100302.13;;;8.70;100.00
4085;BME280;2057;50.858;6.572;2023-03-21T04:56:43;100302.72;;;8.66;100.00
4085;BME280;2057;50.858;6.572;2023-03-21T04:59:12;100287.59;;;8.68;100.00
4085;BME280;2057;50.858;6.572;2023-03-21T05:01:40;100292.38;;;8.78;100.00
4085;BME280;2057;50.858;6.572;2023-03-21T05:04:08;100296.34;;;8.73;100.00
4085;BME280;2057;50.858;6.572;2023-03-21T05:06:33;100292.22;;;8.75;100.00
4085;BME280;2057;50.858;6.572;2023-03-21T05:09:01;100294.28;;;8.82;100.00
4085;BME280;2057;50.858;6.572;2023-03-21T05:11:30;100294.28;;;8.82;100.00
4085;BME280;2057;50.858;6.572;2023-03-21T05:13:59;100303.22;;;8.75;100.00
4085;BME280;2057;50.858;6.572;2023-03-21T05:16:25;100298.78;;;8.71;100.00
4085;BME280;2057;50.858;6.572;2023-03-21T05:18:54;100303.94;;;8.73;100.00
4085;BME280;2057;50.858;6.572;2023-03-21T05:21:21;100294.53;;;8.70;100.00
4085;BME280;2057;50.858;6.572;2023-03-21T05:23:46;100302.91;;;8.69;100.00
4085;BME280;2057;50.858;6.572;2023-03-21T05:26:20;100297.84;;;8.69;100.00
4085;BME280;2057;50.858;6.572;2023-03-21T05:28:46;100302.91;;;8.69;100.00
4085;BME280;2057;50.858;6.572;2023-03-21T05:31:13;100309.53;;;8.67;100.00
4085;BME280;2057;50.858;6.572;2023-03-21T05:33:41;100296.09;;;8.68;100.00
4085;BME280;2057;50.858;6.572;2023-03-21T05:38:41;100299.66;;;8.72;100.00
4085;BME280;2057;50.858;6.572;2023-03-21T05:41:10;100306.03;;;8.65;100.00
4085;BME280;2057;50.858;6.572;2023-03-21T05:43:35;100293.75;;;8.71;100.00
4085;BME280;2057;50.858;6.572;2023-03-21T05:48:36;100300.75;;;8.77;100.00
4085;BME280;2057;50.858;6.572;2023-03-21T05:51:03;100294.34;;;8.67;100.00
4085;BME280;2057;50.858;6.572;2023-03-21T05:53:28;100301.22;;;8.70;100.00
4085;BME280;2057;50.858;6.572;2023-03-21T05:55:54;100310.13;;;8.63;100.00
4085;BME280;2057;50.858;6.572;2023-03-21T05:58:19;100305.25;;;8.66;100.00
4085;BME280;2057;50.858;6.572;2023-03-21T06:00:45;100299.22;;;8.64;100.00
4085;BME280;2057;50.858;6.572;2023-03-21T06:03:10;100304.94;;;8.60;100.00
4085;BME280;2057;50.858;6.572;2023-03-21T06:05:37;100307.59;;;8.63;100.00
4085;BME280;2057;50.858;6.572;2023-03-21T06:08:03;100306.13;;;8.67;100.00
4085;BME280;2057;50.858;6.572;2023-03-21T06:10:28;100313.25;;;8.57;100.00
4085;BME280;2057;50.858;6.572;2023-03-21T06:12:54;100317.09;;;8.51;100.00
4085;BME280;2057;50.858;6.572;2023-03-21T06:15:19;100317.09;;;8.51;100.00
4085;BME280;2057;50.858;6.572;2023-03-21T06:17:45;100315.59;;;8.54;100.00
4085;BME280;2057;50.858;6.572;2023-03-21T06:20:10;100324.75;;;8.52;100.00
4085;BME280;2057;50.858;6.572;2023-03-21T06:22:36;100322.13;;;8.51;100.00
4085;BME280;2057;50.858;6.572;2023-03-21T06:25:03;100328.94;;;8.52;100.00
4085;BME280;2057;50.858;6.572;2023-03-21T06:27:32;100325.00;;;8.57;100.00
4085;BME280;2057;50.858;6.572;2023-03-21T06:30:00;100320.72;;;8.56;100.00
4085;BME280;2057;50.858;6.572;2023-03-21T06:32:26;100325.72;;;8.54;100.00
4085;BME280;2057;50.858;6.572;2023-03-21T06:34:51;100330.25;;;8.60;100.00
4085;BME280;2057;50.858;6.572;2023-03-21T06:37:17;100330.88;;;8.72;100.00
4085;BME280;2057;50.858;6.572;2023-03-21T06:39:43;100330.94;;;8.57;100.00
4085;BME280;2057;50.858;6.572;2023-03-21T06:42:09;100329.78;;;8.67;100.00
4085;BME280;2057;50.858;6.572;2023-03-21T06:44:34;100327.84;;;8.63;100.00
4085;BME280;2057;50.858;6.572;2023-03-21T06:47:00;100331.59;;;8.70;100.00
4085;BME280;2057;50.858;6.572;2023-03-21T06:49:25;100322.91;;;8.65;100.00
4085;BME280;2057;50.858;6.572;2023-03-21T06:51:51;100325.19;;;8.60;100.00
4085;BME280;2057;50.858;6.572;2023-03-21T06:54:17;100318.09;;;8.69;100.00
4085;BME280;2057;50.858;6.572;2023-03-21T06:56:43;100319.50;;;8.81;100.00
4085;BME280;2057;50.858;6.572;2023-03-21T06:59:08;100314.78;;;8.70;100.00
4085;BME280;2057;50.858;6.572;2023-03-21T07:01:34;100311.53;;;8.73;100.00
4085;BME280;2057;50.858;6.572;2023-03-21T07:04:00;100313.81;;;8.68;100.00
4085;BME280;2057;50.858;6.572;2023-03-21T07:06:27;100321.56;;;8.71;100.00
4085;BME280;2057;50.858;6.572;2023-03-21T07:08:54;100314.19;;;8.76;100.00
4085;BME280;2057;50.858;6.572;2023-03-21T07:11:20;100323.16;;;8.69;100.00
4085;BME280;2057;50.858;6.572;2023-03-21T07:13:49;100308.66;;;8.67;100.00
4085;BME280;2057;50.858;6.572;2023-03-21T07:16:18;100317.91;;;8.66;100.00
4085;BME280;2057;50.858;6.572;2023-03-21T07:18:43;100315.44;;;8.68;100.00
4085;BME280;2057;50.858;6.572;2023-03-21T07:21:09;100312.47;;;8.75;100.00
4085;BME280;2057;50.858;6.572;2023-03-21T07:23:35;100315.94;;;8.77;100.00
4085;BME280;2057;50.858;6.572;2023-03-21T07:26:03;100319.03;;;8.71;100.00
4085;BME280;2057;50.858;6.572;2023-03-21T07:28:28;100314.13;;;8.74;100.00
4085;BME280;2057;50.858;6.572;2023-03-21T07:30:57;100310.88;;;8.77;100.00
4085;BME280;2057;50.858;6.572;2023-03-21T07:33:24;100313.34;;;8.75;100.00
4085;BME280;2057;50.858;6.572;2023-03-21T07:35:51;100306.00;;;8.80;100.00
4085;BME280;2057;50.858;6.572;2023-03-21T07:38:17;100305.50;;;8.71;100.00
4085;BME280;2057;50.858;6.572;2023-03-21T07:40:44;100305.13;;;8.79;100.00
4085;BME280;2057;50.858;6.572;2023-03-21T07:43:10;100310.75;;;8.74;100.00
4085;BME280;2057;50.858;6.572;2023-03-21T07:45:36;100311.03;;;8.63;100.00
4085;BME280;2057;50.858;6.572;2023-03-21T07:48:01;100308.81;;;8.70;100.00
4085;BME280;2057;50.858;6.572;2023-03-21T07:50:26;100303.94;;;8.73;100.00
4085;BME280;2057;50.858;6.572;2023-03-21T07:52:54;100313.16;;;8.72;100.00
4085;BME280;2057;50.858;6.572;2023-03-21T07:55:20;100302.25;;;8.73;100.00
4085;BME280;2057;50.858;6.572;2023-03-21T07:57:48;100307.81;;;8.83;100.00
4085;BME280;2057;50.858;6.572;2023-03-21T08:00:14;100309.78;;;8.72;100.00
4085;BME280;2057;50.858;6.572;2023-03-21T08:02:50;100311.59;;;8.74;100.00
4085;BME280;2057;50.858;6.572;2023-03-21T08:05:20;100317.63;;;8.76;100.00
4085;BME280;2057;50.858;6.572;2023-03-21T08:07:45;100316.50;;;8.71;100.00
4085;BME280;2057;50.858;6.572;2023-03-21T08:10:11;100313.41;;;8.77;100.00
4085;BME280;2057;50.858;6.572;2023-03-21T08:12:37;100315.56;;;8.86;100.00
4085;BME280;2057;50.858;6.572;2023-03-21T08:15:02;100316.50;;;8.71;100.00
4085;BME280;2057;50.858;6.572;2023-03-21T08:17:28;100316.84;;;8.77;100.00
4085;BME280;2057;50.858;6.572;2023-03-21T08:19:53;100318.09;;;8.69;100.00
4085;BME280;2057;50.858;6.572;2023-03-21T08:22:18;100309.34;;;8.64;100.00
4085;BME280;2057;50.858;6.572;2023-03-21T08:24:44;100313.16;;;8.72;100.00
4085;BME280;2057;50.858;6.572;2023-03-21T08:27:09;100309.06;;;8.74;100.00
4085;BME280;2057;50.858;6.572;2023-03-21T08:29:34;100313.03;;;8.69;100.00
4085;BME280;2057;50.858;6.572;2023-03-21T08:32:05;100309.84;;;8.73;100.00
4085;BME280;2057;50.858;6.572;2023-03-21T08:34:30;100303.22;;;8.75;100.00
4085;BME280;2057;50.858;6.572;2023-03-21T08:36:55;100307.66;;;8.79;100.00
4085;BME280;2057;50.858;6.572;2023-03-21T08:39:21;100311.13;;;8.82;100.00
4085;BME280;2057;50.858;6.572;2023-03-21T08:41:48;100306.72;;;8.77;100.00
4085;BME280;2057;50.858;6.572;2023-03-21T08:44:13;100309.47;;;8.82;100.00
4085;BME280;2057;50.858;6.572;2023-03-21T08:46:41;100306.41;;;8.88;100.00
4085;BME280;2057;50.858;6.572;2023-03-21T08:49:06;100310.84;;;8.92;100.00
4085;BME280;2057;50.858;6.572;2023-03-21T08:51:31;100317.03;;;8.97;100.00
4085;BME280;2057;50.858;6.572;2023-03-21T08:53:58;100314.56;;;8.99;100.00
4085;BME280;2057;50.858;6.572;2023-03-21T08:56:24;100313.66;;;8.98;100.00
4085;BME280;2057;50.858;6.572;2023-03-21T08:58:49;100314.63;;;9.00;100.00
4085;BME280;2057;50.858;6.572;2023-03-21T09:01:15;100317.41;;;9.05;100.00
4085;BME280;2057;50.858;6.572;2023-03-21T09:03:41;100315.53;;;9.01;100.00
4085;BME280;2057;50.858;6.572;2023-03-21T09:06:07;100317.16;;;9.00;100.00
4085;BME280;2057;50.858;6.572;2023-03-21T09:08:36;100319.88;;;9.03;100.00
4085;BME280;2057;50.858;6.572;2023-03-21T09:11:02;100315.03;;;9.08;100.00
4085;BME280;2057;50.858;6.572;2023-03-21T09:13:28;100318.44;;;9.08;100.00
4085;BME280;2057;50.858;6.572;2023-03-21T09:15:54;100315.28;;;9.13;100.00
4085;BME280;2057;50.858;6.572;2023-03-21T09:18:19;100308.78;;;9.18;100.00
4085;BME280;2057;50.858;6.572;2023-03-21T09:20:47;100311.88;;;9.12;100.00
4085;BME280;2057;50.858;6.572;2023-03-21T09:23:14;100309.75;;;9.20;100.00
4085;BME280;2057;50.858;6.572;2023-03-21T09:25:40;100303.97;;;9.22;100.00
4085;BME280;2057;50.858;6.572;2023-03-21T09:28:06;100301.59;;;9.25;100.00
4085;BME280;2057;50.858;6.572;2023-03-21T09:30:34;100305.94;;;9.28;100.00
4085;BME280;2057;50.858;6.572;2023-03-21T09:33:02;100308.63;;;9.31;100.00
4085;BME280;2057;50.858;6.572;2023-03-21T09:35:30;100310.34;;;9.32;100.00
4085;BME280;2057;50.858;6.572;2023-03-21T09:37:56;100300.69;;;9.41;100.00
4085;BME280;2057;50.858;6.572;2023-03-21T09:43:27;100307.00;;;9.50;100.00
4085;BME280;2057;50.858;6.572;2023-03-21T09:46:23;100289.38;;;9.51;100.00
4085;BME280;2057;50.858;6.572;2023-03-21T09:48:59;100299.50;;;9.51;100.00
4085;BME280;2057;50.858;6.572;2023-03-21T09:51:31;100291.97;;;9.53;100.00
4085;BME280;2057;50.858;6.572;2023-03-21T09:54:06;100290.69;;;9.61;100.00
4085;BME280;2057;50.858;6.572;2023-03-21T09:56:35;100285.00;;;9.65;100.00
4085;BME280;2057;50.858;6.572;2023-03-21T09:59:04;100284.56;;;9.74;100.00
4085;BME280;2057;50.858;6.572;2023-03-21T10:01:34;100285.34;;;9.73;100.00
4085;BME280;2057;50.858;6.572;2023-03-21T10:04:09;100276.91;;;9.91;100.00
4085;BME280;2057;50.858;6.572;2023-03-21T10:06:37;100271.09;;;9.75;100.00
4085;BME280;2057;50.858;6.572;2023-03-21T10:09:10;100272.91;;;9.78;100.00
4085;BME280;2057;50.858;6.572;2023-03-21T10:11:44;100267.03;;;9.79;100.00
4085;BME280;2057;50.858;6.572;2023-03-21T10:14:19;100256.81;;;9.77;100.00
4085;BME280;2057;50.858;6.572;2023-03-21T10:16:48;100259.50;;;9.80;100.00
4085;BME280;2057;50.858;6.572;2023-03-21T10:19:17;100262.25;;;9.85;100.00
4085;BME280;2057;50.858;6.572;2023-03-21T10:21:46;100261.91;;;9.95;100.00
4085;BME280;2057;50.858;6.572;2023-03-21T10:24:20;100256.09;;;9.98;100.00
4085;BME280;2057;50.858;6.572;2023-03-21T10:26:49;100252.69;;;10.15;100.00
4085;BME280;2057;50.858;6.572;2023-03-21T10:29:16;100249.28;;;10.15;100.00
4085;BME280;2057;50.858;6.572;2023-03-21T10:31:43;100246.19;;;10.20;100.00
4085;BME280;2057;50.858;6.572;2023-03-21T10:34:30;100248.91;;;10.07;100.00
4085;BME280;2057;50.858;6.572;2023-03-21T10:36:58;100239.78;;;10.11;100.00
4085;BME280;2057;50.858;6.572;2023-03-21T10:39:30;100234.59;;;10.08;100.00
4085;BME280;2057;50.858;6.572;2023-03-21T10:41:57;100231.38;;;10.12;100.00
4085;BME280;2057;50.858;6.572;2023-03-21T10:44:31;100226.31;;;10.12;100.00
4085;BME280;2057;50.858;6.572;2023-03-21T10:47:03;100224.09;;;10.18;100.00
4085;BME280;2057;50.858;6.572;2023-03-21T10:49:30;100219.66;;;10.14;100.00
4085;BME280;2057;50.858;6.572;2023-03-21T10:52:02;100213.78;;;10.15;100.00
4085;BME280;2057;50.858;6.572;2023-03-21T10:54:30;100208.97;;;10.21;100.00
4085;BME280;2057;50.858;6.572;2023-03-21T10:56:57;100202.09;;;10.18;100.00
4085;BME280;2057;50.858;6.572;2023-03-21T10:59:25;100198.03;;;10.22;100.00
4085;BME280;2057;50.858;6.572;2023-03-21T11:01:54;100191.63;;;10.30;100.00
4085;BME280;2057;50.858;6.572;2023-03-21T11:04:26;100187.16;;;10.43;100.00
4085;BME280;2057;50.858;6.572;2023-03-21T11:06:55;100182.16;;;10.26;100.00
4085;BME280;2057;50.858;6.572;2023-03-21T11:09:23;100191.06;;;10.36;100.00
4085;BME280;2057;50.858;6.572;2023-03-21T11:12:32;100181.66;;;10.33;100.00
4085;BME280;2057;50.858;6.572;2023-03-21T11:14:42;100183.22;;;10.31;100.00
4085;BME280;2057;50.858;6.572;2023-03-21T11:19:56;100185.63;;;10.28;100.00
4085;BME280;2057;50.858;6.572;2023-03-21T11:22:24;100190.16;;;10.16;100.00
4085;BME280;2057;50.858;6.572;2023-03-21T11:24:56;100178.22;;;10.13;100.00
4085;BME280;2057;50.858;6.572;2023-03-21T11:27:23;100178.28;;;10.15;100.00
4085;BME280;2057;50.858;6.572;2023-03-21T11:29:53;100188.41;;;10.15;100.00
4085;BME280;2057;50.858;6.572;2023-03-21T11:32:24;100183.19;;;10.12;100.00
4085;BME280;2057;50.858;6.572;2023-03-21T11:35:00;100189.72;;;10.07;100.00
4085;BME280;2057;50.858;6.572;2023-03-21T11:37:33;100190.53;;;10.05;100.00
4085;BME280;2057;50.858;6.572;2023-03-21T11:40:29;100183.88;;;10.08;100.00
4085;BME280;2057;50.858;6.572;2023-03-21T11:43:00;100183.72;;;10.04;100.00
4085;BME280;2057;50.858;6.572;2023-03-21T11:45:33;100180.63;;;9.92;100.00
4085;BME280;2057;50.858;6.572;2023-03-21T11:48:02;100185.03;;;9.96;100.00
4085;BME280;2057;50.858;6.572;2023-03-21T11:50:43;100185.53;;;9.89;100.00
4085;BME280;2057;50.858;6.572;2023-03-21T11:58:32;100177.91;;;10.07;100.00
4085;BME280;2057;50.858;6.572;2023-03-21T12:14:50;100148.09;;;10.39;100.00
4085;BME280;2057;50.858;6.572;2023-03-21T12:25:31;100153.34;;;10.83;100.00
4085;BME280;2057;50.858;6.572;2023-03-21T12:33:41;100149.84;;;11.01;100.00
4085;BME280;2057;50.858;6.572;2023-03-21T12:39:11;100142.97;;;11.19;100.00
4085;BME280;2057;50.858;6.572;2023-03-21T12:44:32;100132.13;;;11.23;100.00
4085;BME280;2057;50.858;6.572;2023-03-21T12:47:22;100138.22;;;11.27;100.00
4085;BME280;2057;50.858;6.572;2023-03-21T12:49:52;100125.75;;;11.33;100.00
4085;BME280;2057;50.858;6.572;2023-03-21T12:52:21;100130.03;;;11.34;100.00
4085;BME280;2057;50.858;6.572;2023-03-21T12:54:51;100117.22;;;11.54;100.00
4085;BME280;2057;50.858;6.572;2023-03-21T12:57:29;100107.06;;;11.54;100.00
4085;BME280;2057;50.858;6.572;2023-03-21T13:00:04;100114.84;;;11.58;100.00
4085;BME280;2057;50.858;6.572;2023-03-21T13:02:39;100101.81;;;11.72;100.00
4085;BME280;2057;50.858;6.572;2023-03-21T13:05:17;100097.09;;;11.81;100.00
4085;BME280;2057;50.858;6.572;2023-03-21T13:07:49;100094.59;;;11.83;100.00
4085;BME280;2057;50.858;6.572;2023-03-21T13:10:18;100083.44;;;11.79;100.00
4085;BME280;2057;50.858;6.572;2023-03-21T13:13:03;100099.34;;;11.96;100.00
4085;BME280;2057;50.858;6.572;2023-03-21T13:21:14;100077.69;;;12.30;99.26
4085;BME280;2057;50.858;6.572;2023-03-21T13:23:59;100074.41;;;12.59;99.62
4085;BME280;2057;50.858;6.572;2023-03-21T13:26:35;100069.63;;;12.68;98.43
4085;BME280;2057;50.858;6.572;2023-03-21T13:31:51;100076.84;;;12.81;96.55
4085;BME280;2057;50.858;6.572;2023-03-21T13:34:20;100069.28;;;12.83;97.37
4085;BME280;2057;50.858;6.572;2023-03-21T13:36:47;100062.06;;;12.71;98.55
4085;BME280;2057;50.858;6.572;2023-03-21T13:39:20;100052.13;;;12.79;100.00
4085;BME280;2057;50.858;6.572;2023-03-21T13:41:48;100050.91;;;12.93;100.00
4085;BME280;2057;50.858;6.572;2023-03-21T13:44:31;100049.22;;;12.94;99.33
4085;BME280;2057;50.858;6.572;2023-03-21T13:47:05;100044.03;;;12.91;97.22
4085;BME280;2057;50.858;6.572;2023-03-21T13:55:38;100034.72;;;12.91;95.32
4085;BME280;2057;50.858;6.572;2023-03-21T14:03:29;100029.38;;;12.83;95.04
4085;BME280;2057;50.858;6.572;2023-03-21T14:06:00;100027.97;;;12.93;94.50
4085;BME280;2057;50.858;6.572;2023-03-21T14:08:27;100024.75;;;12.99;93.55
4085;BME280;2057;50.858;6.572;2023-03-21T14:10:56;100012.81;;;12.98;94.20
4085;BME280;2057;50.858;6.572;2023-03-21T14:13:25;100020.88;;;13.10;92.86
4085;BME280;2057;50.858;6.572;2023-03-21T14:15:53;100021.44;;;13.29;92.36
4085;BME280;2057;50.858;6.572;2023-03-21T14:18:20;100019.56;;;13.23;91.14
4085;BME280;2057;50.858;6.572;2023-03-21T14:20:52;100024.19;;;13.37;89.60
4085;BME280;2057;50.858;6.572;2023-03-21T14:23:19;100021.47;;;13.30;87.78
4085;BME280;2057;50.858;6.572;2023-03-21T14:25:45;100015.91;;;13.42;88.04
4085;BME280;2057;50.858;6.572;2023-03-21T14:28:17;100005.97;;;13.52;89.19
4085;BME280;2057;50.858;6.572;2023-03-21T14:30:44;100004.44;;;13.57;88.76
4085;BME280;2057;50.858;6.572;2023-03-21T14:35:47;99999.53;;;13.95;87.80
4085;BME280;2057;50.858;6.572;2023-03-21T14:38:21;100003.97;;;14.02;88.30
4085;BME280;2057;50.858;6.572;2023-03-21T14:40:49;99992.16;;;14.06;88.89
4085;BME280;2057;50.858;6.572;2023-03-21T14:43:17;99999.94;;;14.42;92.90
4085;BME280;2057;50.858;6.572;2023-03-21T14:45:46;100004.81;;;14.35;96.85
4085;BME280;2057;50.858;6.572;2023-03-21T14:48:14;100000.22;;;14.90;95.12
4085;BME280;2057;50.858;6.572;2023-03-21T14:50:53;99998.84;;;15.04;90.77
4085;BME280;2057;50.858;6.572;2023-03-21T14:53:25;99991.00;;;14.95;85.47
4085;BME280;2057;50.858;6.572;2023-03-21T14:58:26;99982.94;;;15.16;77.30
4085;BME280;2057;50.858;6.572;2023-03-21T15:00:56;99972.56;;;15.10;71.90
4085;BME280;2057;50.858;6.572;2023-03-21T15:03:22;99975.63;;;15.33;73.13
4085;BME280;2057;50.858;6.572;2023-03-21T15:05:51;99976.81;;;15.92;68.45